createdAt,value
2023-08-14T00:01:30.907Z,79.32
2023-08-14T00:03:59.950Z,79.15
2023-08-14T00:06:27.616Z,79.25
2023-08-14T00:08:55.205Z,79.45
2023-08-14T00:11:22.820Z,79.40
2023-08-14T00:13:51.831Z,80.29
2023-08-14T00:16:19.509Z,80.97
2023-08-14T00:18:47.237Z,81.05
2023-08-14T00:21:17.035Z,81.32
2023-08-14T00:23:44.773Z,81.43
2023-08-14T00:26:12.758Z,81.30
2023-08-14T00:28:40.611Z,81.31
2023-08-14T00:31:09.235Z,81.70
2023-08-14T00:33:36.952Z,81.24
2023-08-14T00:36:06.701Z,81.15
2023-08-14T00:38:35.885Z,81.00
2023-08-14T00:41:04.491Z,81.30
2023-08-14T00:43:32.195Z,81.61
2023-08-14T00:46:00.112Z,80.63
2023-08-14T00:48:28.088Z,81.58
2023-08-14T00:50:56.544Z,80.39
2023-08-14T00:53:25.172Z,80.26
2023-08-14T00:55:54.530Z,80.36
2023-08-14T00:58:22.351Z,80.25
2023-08-14T01:00:50.141Z,81.20
2023-08-14T01:03:18.833Z,80.78
2023-08-14T01:05:46.985Z,82.04
2023-08-14T01:08:14.607Z,81.70
2023-08-14T01:10:51.969Z,81.71
2023-08-14T01:13:28.195Z,81.69
2023-08-14T01:15:57.860Z,81.20
2023-08-14T01:18:26.626Z,81.29
2023-08-14T01:21:13.176Z,80.17
2023-08-14T01:23:54.759Z,81.36
2023-08-14T01:26:24.517Z,81.38
2023-08-14T01:28:51.342Z,81.90
2023-08-14T01:31:18.950Z,82.38
2023-08-14T01:33:46.806Z,83.92
2023-08-14T01:36:18.490Z,84.16
2023-08-14T01:38:55.981Z,83.17
2023-08-14T01:41:28.165Z,83.26
2023-08-14T01:43:58.249Z,83.10
2023-08-14T01:46:26.512Z,82.50
2023-08-14T01:48:54.946Z,82.50
2023-08-14T01:51:23.214Z,82.94
2023-08-14T01:53:50.937Z,83.38
2023-08-14T01:56:18.661Z,83.73
2023-08-14T01:58:47.582Z,84.39
2023-08-14T02:01:15.231Z,83.88
2023-08-14T02:03:42.965Z,83.42
2023-08-14T02:06:10.670Z,83.39
2023-08-14T02:08:39.288Z,83.08
2023-08-14T02:11:10.386Z,82.74
2023-08-14T02:13:38.524Z,82.80
2023-08-14T02:16:07.848Z,82.25
2023-08-14T02:18:35.479Z,82.22
2023-08-14T02:21:03.091Z,82.50
2023-08-14T02:23:30.706Z,83.36
2023-08-14T02:25:58.356Z,83.58
2023-08-14T02:28:26.275Z,84.00
2023-08-14T02:30:54.528Z,84.31
2023-08-14T02:33:23.470Z,84.69
2023-08-14T02:35:51.143Z,85.06
2023-08-14T02:38:18.722Z,84.09
2023-08-14T02:40:46.370Z,84.11
2023-08-14T02:43:14.135Z,84.03
2023-08-14T02:45:41.805Z,83.95
2023-08-14T02:48:12.136Z,84.25
2023-08-14T02:50:41.559Z,83.39
2023-08-14T02:53:09.191Z,83.91
2023-08-14T02:55:36.841Z,83.63
2023-08-14T02:58:04.870Z,83.28
2023-08-14T03:00:32.589Z,83.87
2023-08-14T03:03:00.407Z,84.27
2023-08-14T03:05:28.336Z,84.01
2023-08-14T03:07:57.291Z,83.98
2023-08-14T03:10:26.809Z,84.33
2023-08-14T03:12:54.489Z,84.08
2023-08-14T03:15:22.134Z,84.38
2023-08-14T03:17:50.172Z,83.83
2023-08-14T03:20:17.956Z,83.98
2023-08-14T03:22:46.821Z,84.61
2023-08-14T03:25:15.809Z,84.37
2023-08-14T03:27:43.482Z,84.40
2023-08-14T03:30:13.768Z,84.16
2023-08-14T03:32:41.684Z,83.98
2023-08-14T03:35:09.500Z,83.82
2023-08-14T03:37:37.208Z,83.89
2023-08-14T03:40:06.145Z,83.86
2023-08-14T03:42:35.754Z,84.55
2023-08-14T03:45:05.230Z,84.75
2023-08-14T03:47:32.878Z,84.30
2023-08-14T03:50:00.483Z,84.22
2023-08-14T03:52:28.548Z,84.08
2023-08-14T03:54:56.301Z,84.55
2023-08-14T03:57:23.979Z,84.15
2023-08-14T03:59:54.175Z,83.44
2023-08-14T04:02:22.180Z,83.38
2023-08-14T04:04:49.879Z,83.84
2023-08-14T04:07:17.557Z,83.44
2023-08-14T04:09:45.176Z,83.07
2023-08-14T04:12:12.848Z,82.67
2023-08-14T04:14:40.458Z,82.95
2023-08-14T04:17:09.509Z,82.78
2023-08-14T04:19:37.176Z,82.47
2023-08-14T04:22:05.241Z,82.91
2023-08-14T04:24:32.913Z,82.81
2023-08-14T04:27:01.108Z,82.50
2023-08-14T04:29:28.782Z,82.97
2023-08-14T04:31:56.689Z,82.99
2023-08-14T04:34:25.833Z,82.98
2023-08-14T04:36:55.401Z,82.62
2023-08-14T04:39:23.048Z,83.39
2023-08-14T04:41:50.653Z,83.07
2023-08-14T04:44:18.332Z,82.85
2023-08-14T04:46:58.929Z,82.11
2023-08-14T04:49:31.160Z,82.23
2023-08-14T04:51:59.185Z,82.09
2023-08-14T04:54:27.544Z,82.04
2023-08-14T04:56:55.196Z,82.39
2023-08-14T04:59:22.866Z,82.51
2023-08-14T05:01:50.634Z,83.19
2023-08-14T05:04:20.407Z,83.41
2023-08-14T05:06:49.967Z,83.10
2023-08-14T05:09:26.427Z,83.16
2023-08-14T05:11:55.209Z,83.04
2023-08-14T05:14:23.021Z,83.21
2023-08-14T05:16:52.108Z,83.05
2023-08-14T05:19:19.789Z,82.72
2023-08-14T05:21:47.522Z,82.83
2023-08-14T05:24:17.445Z,82.82
2023-08-14T05:26:45.112Z,82.75
2023-08-14T05:29:12.765Z,82.77
2023-08-14T05:31:40.419Z,83.04
2023-08-14T05:34:08.075Z,82.98
2023-08-14T05:36:35.718Z,82.75
2023-08-14T05:39:03.607Z,82.20
2023-08-14T05:41:32.541Z,82.00
2023-08-14T05:44:00.141Z,82.41
2023-08-14T05:46:27.753Z,82.02
2023-08-14T05:48:55.433Z,81.88
2023-08-14T05:51:23.199Z,81.78
2023-08-14T05:53:50.765Z,81.77
2023-08-14T05:56:18.421Z,82.11
2023-08-14T05:58:47.385Z,82.03
2023-08-14T06:01:15.765Z,81.68
2023-08-14T06:03:45.385Z,81.81
2023-08-14T06:06:13.751Z,81.25
2023-08-14T06:08:41.380Z,81.25
2023-08-14T06:11:09.017Z,80.70
2023-08-14T06:13:36.660Z,80.87
2023-08-14T06:16:05.928Z,80.35
2023-08-14T06:18:33.777Z,79.95
2023-08-14T06:21:01.420Z,80.17
2023-08-14T06:23:29.134Z,79.53
2023-08-14T06:25:56.739Z,78.84
2023-08-14T06:28:24.488Z,78.89
2023-08-14T06:30:52.133Z,78.31
2023-08-14T06:33:21.107Z,78.08
2023-08-14T06:35:48.721Z,77.04
2023-08-14T06:38:16.301Z,77.01
2023-08-14T06:40:43.940Z,76.96
2023-08-14T06:43:11.553Z,76.26
2023-08-14T06:45:39.156Z,76.38
2023-08-14T06:48:07.882Z,75.83
2023-08-14T06:50:36.832Z,75.48
2023-08-14T06:53:04.700Z,75.74
2023-08-14T06:55:32.314Z,74.95
2023-08-14T06:57:59.946Z,74.88
2023-08-14T07:00:27.582Z,75.30
2023-08-14T07:02:55.360Z,74.87
2023-08-14T07:05:23.139Z,75.17
2023-08-14T07:07:52.180Z,75.14
2023-08-14T07:10:20.246Z,74.84
2023-08-14T07:12:49.498Z,74.54
2023-08-14T07:15:17.230Z,74.43
2023-08-14T07:17:44.957Z,73.74
2023-08-14T07:20:14.755Z,73.29
2023-08-14T07:22:43.181Z,72.55
2023-08-14T07:25:12.917Z,72.29
2023-08-14T07:27:40.524Z,71.98
2023-08-14T07:30:10.880Z,71.39
2023-08-14T07:32:38.626Z,70.91
2023-08-14T07:35:07.205Z,69.63
2023-08-14T07:37:34.875Z,68.83
2023-08-14T07:40:02.598Z,68.95
2023-08-14T07:42:31.619Z,67.19
2023-08-14T07:44:59.228Z,67.26
2023-08-14T07:47:27.045Z,66.51
2023-08-14T07:49:54.689Z,64.53
2023-08-14T07:52:22.282Z,63.71
2023-08-14T07:54:49.922Z,63.82
2023-08-14T07:57:17.626Z,64.09
2023-08-14T07:59:46.590Z,64.73
2023-08-14T08:02:14.193Z,64.81
2023-08-14T08:04:42.155Z,64.82
2023-08-14T08:07:11.130Z,64.65
2023-08-14T08:09:39.001Z,65.03
2023-08-14T08:12:07.438Z,65.37
2023-08-14T08:14:35.841Z,65.20
2023-08-14T08:17:05.249Z,64.57
2023-08-14T08:19:32.958Z,63.84
2023-08-14T08:22:00.778Z,63.81
2023-08-14T08:24:28.447Z,63.88
2023-08-14T08:26:56.082Z,64.11
2023-08-14T08:29:23.741Z,63.60
2023-08-14T08:31:51.405Z,64.13
2023-08-14T08:34:20.481Z,63.47
2023-08-14T08:36:48.262Z,62.57
2023-08-14T08:39:19.537Z,62.54
2023-08-14T08:41:48.861Z,62.96
2023-08-14T08:44:20.311Z,63.10
2023-08-14T08:46:53.541Z,63.65
2023-08-14T08:49:22.643Z,62.83
2023-08-14T08:51:50.712Z,62.85
2023-08-14T08:54:18.779Z,63.14
2023-08-14T08:56:46.941Z,62.51
2023-08-14T08:59:17.119Z,62.19
2023-08-14T09:01:44.809Z,62.26
2023-08-14T09:04:12.730Z,62.25
2023-08-14T09:06:42.110Z,61.82
2023-08-14T09:09:11.102Z,61.75
2023-08-14T09:11:38.767Z,61.84
2023-08-14T09:14:06.666Z,62.02
2023-08-14T09:16:34.733Z,61.06
2023-08-14T09:19:02.443Z,61.16
2023-08-14T09:21:30.764Z,59.37
2023-08-14T09:24:00.487Z,58.05
2023-08-14T09:26:28.136Z,57.55
2023-08-14T09:28:55.846Z,57.56
2023-08-14T09:31:23.513Z,57.47
2023-08-14T09:33:51.193Z,57.20
2023-08-14T09:36:19.198Z,57.60
2023-08-14T09:38:46.938Z,56.70
2023-08-14T09:41:16.071Z,56.38
2023-08-14T09:43:45.992Z,55.67
2023-08-14T09:46:13.929Z,55.14
2023-08-14T09:48:43.005Z,54.41
2023-08-14T09:51:14.191Z,53.68
2023-08-14T09:53:46.357Z,53.91
2023-08-14T09:56:14.457Z,53.18
2023-08-14T09:58:43.701Z,53.77
2023-08-14T10:01:14.371Z,52.82
2023-08-14T10:03:43.128Z,52.98
2023-08-14T10:06:13.716Z,53.42
2023-08-14T10:08:43.042Z,53.41
2023-08-14T10:11:19.641Z,53.06
2023-08-14T10:13:53.472Z,52.79
2023-08-14T10:16:24.668Z,52.88
2023-08-14T10:18:55.501Z,52.78
2023-08-14T10:21:26.774Z,52.24
2023-08-14T10:23:56.465Z,52.14
2023-08-14T10:26:27.380Z,51.50
2023-08-14T10:28:58.484Z,50.52
2023-08-14T10:31:27.276Z,50.33
2023-08-14T10:33:55.773Z,49.50
2023-08-14T10:36:24.099Z,49.60
2023-08-14T10:39:02.416Z,49.53
2023-08-14T10:41:35.234Z,48.85
2023-08-14T10:44:07.874Z,47.88
2023-08-14T10:46:39.199Z,47.93
2023-08-14T10:49:06.894Z,48.33
2023-08-14T10:51:35.346Z,48.74
2023-08-14T10:54:11.527Z,47.87
2023-08-14T10:56:44.222Z,48.13
2023-08-14T10:59:24.409Z,47.73
2023-08-14T11:01:53.932Z,47.39
2023-08-14T11:04:21.616Z,48.47
2023-08-14T11:07:09.636Z,47.38
2023-08-14T11:09:38.221Z,46.78
2023-08-14T11:12:07.494Z,47.74
2023-08-14T11:14:40.119Z,47.94
2023-08-14T11:17:08.262Z,47.38
2023-08-14T11:19:37.022Z,47.56
2023-08-14T11:22:04.820Z,47.74
2023-08-14T11:24:34.214Z,47.38
2023-08-14T11:27:02.487Z,48.39
2023-08-14T11:29:31.984Z,47.50
2023-08-14T11:32:02.681Z,48.03
2023-08-14T11:34:33.278Z,47.62
2023-08-14T11:39:34.038Z,47.76
2023-08-14T11:42:03.070Z,47.72
2023-08-14T11:44:30.786Z,47.50
2023-08-14T11:46:58.599Z,45.93
2023-08-14T11:49:29.481Z,45.92
2023-08-14T11:51:57.169Z,45.30
2023-08-14T11:54:26.745Z,43.53
2023-08-14T11:56:54.742Z,43.76
2023-08-14T11:59:22.381Z,43.05
2023-08-14T12:01:50.053Z,42.73
2023-08-14T12:04:17.833Z,42.05
2023-08-14T12:06:46.828Z,40.94
2023-08-14T12:09:14.570Z,40.74
2023-08-14T12:11:42.283Z,41.02
2023-08-14T12:14:10.243Z,41.60
2023-08-14T12:16:40.981Z,41.39
2023-08-14T12:19:10.281Z,41.96
2023-08-14T12:21:37.949Z,40.83
2023-08-14T12:24:07.908Z,40.73
2023-08-14T12:26:41.856Z,40.93
2023-08-14T12:29:10.252Z,40.38
2023-08-14T12:31:38.018Z,38.86
2023-08-14T12:34:07.490Z,39.13
2023-08-14T12:36:35.594Z,39.30
2023-08-14T12:39:03.422Z,39.04
2023-08-14T12:41:32.523Z,39.96
2023-08-14T12:44:00.313Z,40.31
2023-08-14T12:46:28.258Z,39.70
2023-08-14T12:48:56.069Z,40.03
2023-08-14T12:51:24.352Z,39.96
2023-08-14T12:53:51.996Z,40.36
2023-08-14T12:56:19.661Z,40.49
2023-08-14T12:58:49.523Z,40.45
2023-08-14T13:01:17.882Z,40.02
2023-08-14T13:03:45.718Z,40.43
2023-08-14T13:06:13.482Z,39.53
2023-08-14T13:08:41.861Z,39.43
2023-08-14T13:11:10.123Z,39.84
2023-08-14T13:13:37.868Z,39.57
2023-08-14T13:16:07.421Z,39.78
2023-08-14T13:18:35.170Z,40.39
2023-08-14T13:21:02.988Z,40.71
2023-08-14T13:23:30.633Z,40.70
2023-08-14T13:25:58.305Z,41.36
2023-08-14T13:28:25.954Z,41.23
2023-08-14T13:30:53.612Z,40.46
2023-08-14T13:33:22.598Z,41.05
2023-08-14T13:35:51.609Z,40.86
2023-08-14T13:38:19.420Z,40.38
2023-08-14T13:40:47.189Z,41.01
2023-08-14T13:43:15.453Z,40.50
2023-08-14T13:45:44.224Z,41.13
2023-08-14T13:48:12.426Z,41.60
2023-08-14T13:50:42.949Z,40.71
2023-08-14T13:53:10.773Z,40.04
2023-08-14T13:55:38.554Z,40.38
2023-08-14T13:58:06.123Z,39.62
2023-08-14T14:00:33.849Z,38.87
2023-08-14T14:03:01.482Z,38.79
2023-08-14T14:05:29.541Z,39.18
2023-08-14T14:07:58.907Z,38.30
2023-08-14T14:10:27.438Z,38.25
2023-08-14T14:13:02.289Z,38.15
2023-08-14T14:15:31.063Z,37.37
2023-08-14T14:17:59.106Z,38.44
2023-08-14T14:20:26.908Z,38.87
2023-08-14T14:22:54.757Z,38.48
2023-08-14T14:25:23.746Z,39.18
2023-08-14T14:27:51.333Z,38.33
2023-08-14T14:30:19.141Z,38.40
2023-08-14T14:32:46.992Z,38.29
2023-08-14T14:35:15.129Z,38.25
2023-08-14T14:37:43.011Z,38.04
2023-08-14T14:40:11.982Z,37.49
2023-08-14T14:42:40.924Z,37.17
2023-08-14T14:45:12.531Z,36.65
2023-08-14T14:47:45.477Z,36.08
2023-08-14T14:50:24.104Z,35.94
2023-08-14T14:52:56.799Z,34.93
2023-08-14T14:55:24.420Z,35.71
2023-08-14T14:57:53.331Z,35.36
2023-08-14T15:00:21.090Z,34.45
2023-08-14T15:02:48.842Z,32.86
2023-08-14T15:05:27.620Z,33.04
2023-08-14T15:07:57.406Z,32.66
2023-08-14T15:10:25.279Z,32.98
2023-08-14T15:12:54.722Z,31.38
2023-08-14T15:15:22.922Z,32.43
2023-08-14T15:17:50.675Z,32.19
2023-08-14T15:20:18.504Z,31.74
2023-08-14T15:22:46.166Z,32.25
2023-08-14T15:25:14.052Z,33.26
2023-08-14T15:27:41.851Z,32.80
2023-08-14T15:30:11.832Z,32.71
2023-08-14T15:32:39.552Z,33.04
2023-08-14T15:35:08.136Z,32.59
2023-08-14T15:37:35.831Z,33.12
2023-08-14T15:40:05.162Z,33.47
2023-08-14T15:42:32.896Z,33.41
2023-08-14T15:45:01.420Z,33.44
2023-08-14T15:47:30.511Z,33.44
2023-08-14T15:49:58.367Z,34.24
2023-08-14T15:52:29.742Z,34.92
2023-08-14T15:54:58.894Z,34.60
2023-08-14T15:57:27.160Z,34.80
2023-08-14T15:59:55.177Z,34.58
2023-08-14T16:02:23.315Z,34.68
2023-08-14T16:04:52.835Z,34.96
2023-08-14T16:07:21.256Z,35.38
2023-08-14T16:09:51.089Z,35.73
2023-08-14T16:12:18.731Z,35.91
2023-08-14T16:14:46.419Z,35.78
2023-08-14T16:17:14.019Z,35.62
2023-08-14T16:19:41.676Z,36.37
2023-08-14T16:22:10.639Z,36.54
2023-08-14T16:24:40.280Z,36.74
2023-08-14T16:27:08.975Z,37.31
2023-08-14T16:29:36.573Z,37.25
2023-08-14T16:32:04.430Z,37.93
2023-08-14T16:34:32.017Z,38.13
2023-08-14T16:36:59.652Z,38.74
2023-08-14T16:39:28.603Z,38.72
2023-08-14T16:41:56.194Z,39.01
2023-08-14T16:44:23.826Z,37.60
2023-08-14T16:46:51.429Z,37.59
2023-08-14T16:49:19.007Z,38.16
2023-08-14T16:51:46.637Z,37.90
2023-08-14T16:54:14.503Z,38.25
2023-08-14T16:56:43.502Z,39.23
2023-08-14T16:59:11.336Z,39.22
2023-08-14T17:01:39.120Z,39.37
2023-08-14T17:04:07.272Z,39.66
2023-08-14T17:06:35.202Z,39.54
2023-08-14T17:09:02.920Z,39.86
2023-08-14T17:11:30.528Z,40.03
2023-08-14T17:13:59.966Z,40.04
2023-08-14T17:16:28.456Z,40.45
2023-08-14T17:18:57.182Z,40.75
2023-08-14T17:21:24.835Z,40.87
2023-08-14T17:23:52.508Z,41.17
2023-08-14T17:26:20.154Z,41.67
2023-08-14T17:28:47.861Z,41.58
2023-08-14T17:31:17.398Z,41.46
2023-08-14T17:33:45.172Z,42.05
2023-08-14T17:36:13.325Z,42.12
2023-08-14T17:38:41.241Z,42.28
2023-08-14T17:41:09.143Z,42.30
2023-08-14T17:43:36.839Z,42.86
2023-08-14T17:46:04.516Z,43.01
2023-08-14T17:48:33.557Z,42.74
2023-08-14T17:51:01.204Z,43.18
2023-08-14T17:53:28.814Z,43.70
2023-08-14T17:55:56.443Z,44.40
2023-08-14T17:58:24.615Z,44.32
2023-08-14T18:00:52.548Z,44.57
2023-08-14T18:03:20.585Z,45.02
2023-08-14T18:05:53.655Z,45.28
2023-08-14T18:08:22.162Z,46.78
2023-08-14T18:10:50.168Z,47.34
2023-08-14T18:13:17.801Z,47.72
2023-08-14T18:15:45.576Z,47.98
2023-08-14T18:18:13.222Z,49.87
2023-08-14T18:20:40.899Z,50.58
2023-08-14T18:23:10.360Z,51.07
2023-08-14T18:25:37.961Z,52.80
2023-08-14T18:28:06.490Z,51.93
2023-08-14T18:30:34.152Z,52.12
2023-08-14T18:33:02.062Z,51.90
2023-08-14T18:35:29.690Z,52.84
2023-08-14T18:37:58.850Z,53.98
2023-08-14T18:40:27.946Z,53.41
2023-08-14T18:42:55.591Z,53.40
2023-08-14T18:45:23.223Z,55.06
2023-08-14T18:47:50.888Z,55.71
2023-08-14T18:50:18.922Z,55.96
2023-08-14T18:52:47.935Z,56.51
2023-08-14T18:55:15.716Z,57.56
2023-08-14T18:57:45.043Z,57.47
2023-08-14T19:00:13.676Z,57.26
2023-08-14T19:02:41.339Z,56.85
2023-08-14T19:05:10.540Z,57.53
2023-08-14T19:07:38.726Z,56.66
2023-08-14T19:10:07.559Z,57.55
2023-08-14T19:12:35.159Z,57.17
2023-08-14T19:15:04.667Z,58.15
2023-08-14T19:17:32.334Z,58.53
2023-08-14T19:20:00.023Z,58.04
2023-08-14T19:22:27.727Z,58.40
2023-08-14T19:24:55.344Z,58.79
2023-08-14T19:27:23.126Z,58.64
2023-08-14T19:29:50.752Z,58.98
2023-08-14T19:32:19.737Z,60.14
2023-08-14T19:34:47.327Z,60.54
2023-08-14T19:37:15.757Z,61.07
2023-08-14T19:39:43.583Z,61.56
2023-08-14T19:42:11.254Z,60.45
2023-08-14T19:44:38.854Z,61.87
2023-08-14T19:47:06.618Z,62.09
2023-08-14T19:49:35.629Z,62.68
2023-08-14T19:52:03.269Z,62.59
2023-08-14T19:54:30.908Z,62.06
2023-08-14T19:56:58.575Z,63.37
2023-08-14T19:59:26.231Z,63.78
2023-08-14T20:01:53.840Z,62.90
2023-08-14T20:04:21.527Z,64.04
2023-08-14T20:06:50.595Z,62.74
2023-08-14T20:09:18.198Z,64.10
2023-08-14T20:11:45.848Z,63.80
2023-08-14T20:14:13.649Z,64.73
2023-08-14T20:16:41.341Z,64.37
2023-08-14T20:19:09.103Z,65.08
2023-08-14T20:21:36.838Z,65.24
2023-08-14T20:24:06.728Z,64.94
2023-08-14T20:26:35.257Z,65.06
2023-08-14T20:29:02.862Z,65.35
2023-08-14T20:31:30.486Z,64.37
2023-08-14T20:33:58.107Z,64.53
2023-08-14T20:36:26.551Z,64.09
2023-08-14T20:38:54.498Z,63.62
2023-08-14T20:41:23.491Z,63.24
2023-08-14T20:43:51.225Z,64.20
2023-08-14T20:46:18.859Z,64.26
2023-08-14T20:48:46.548Z,65.49
2023-08-14T20:51:14.161Z,65.00
2023-08-14T20:53:41.951Z,66.37
2023-08-14T20:56:09.618Z,66.02
2023-08-14T20:58:38.826Z,66.11
2023-08-14T21:01:06.489Z,66.97
2023-08-14T21:03:34.172Z,68.95
2023-08-14T21:06:01.907Z,68.66
2023-08-14T21:08:29.637Z,67.85
2023-08-14T21:10:57.856Z,68.37
2023-08-14T21:13:25.515Z,67.49
2023-08-14T21:15:57.978Z,68.31
2023-08-14T21:18:25.786Z,68.16
2023-08-14T21:20:53.411Z,68.71
2023-08-14T21:23:21.036Z,68.82
2023-08-14T21:25:48.669Z,68.88
2023-08-14T21:28:16.412Z,69.88
2023-08-14T21:30:44.085Z,69.67
2023-08-14T21:33:13.031Z,69.09
2023-08-14T21:35:40.699Z,69.01
2023-08-14T21:38:08.264Z,68.92
2023-08-14T21:40:36.180Z,68.71
2023-08-14T21:43:05.793Z,68.94
2023-08-14T21:45:33.796Z,69.13
2023-08-14T21:48:02.194Z,68.77
2023-08-14T21:50:31.172Z,68.87
2023-08-14T21:52:58.849Z,68.81
2023-08-14T21:55:26.427Z,68.97
2023-08-14T21:57:54.020Z,68.40
2023-08-14T22:00:21.640Z,69.73
2023-08-14T22:02:49.609Z,69.55
2023-08-14T22:05:17.557Z,69.89
2023-08-14T22:07:46.493Z,70.25
2023-08-14T22:10:14.130Z,70.94
2023-08-14T22:12:45.306Z,70.24
2023-08-14T22:15:13.423Z,71.37
2023-08-14T22:17:41.074Z,71.32
2023-08-14T22:20:11.071Z,70.93
2023-08-14T22:22:38.707Z,71.12
2023-08-14T22:25:08.574Z,71.33
2023-08-14T22:27:36.304Z,70.69
2023-08-14T22:30:04.157Z,70.93
2023-08-14T22:32:31.853Z,70.85
2023-08-14T22:34:59.469Z,70.58
2023-08-14T22:37:27.053Z,70.13
2023-08-14T22:39:54.649Z,70.04
2023-08-14T22:42:23.955Z,70.02
2023-08-14T22:44:51.577Z,69.46
2023-08-14T22:47:19.528Z,69.73
2023-08-14T22:49:47.499Z,70.05
2023-08-14T22:52:15.161Z,70.23
2023-08-14T22:54:42.756Z,70.42
2023-08-14T22:57:10.945Z,70.42
2023-08-14T22:59:39.892Z,71.04
2023-08-14T23:02:07.529Z,70.40
2023-08-14T23:04:35.158Z,70.35
2023-08-14T23:07:02.775Z,70.50
2023-08-14T23:09:30.381Z,71.49
2023-08-14T23:11:58.010Z,71.68
2023-08-14T23:14:25.616Z,71.39
2023-08-14T23:16:54.654Z,70.85
2023-08-14T23:19:22.865Z,71.18
2023-08-14T23:21:50.491Z,71.08
2023-08-14T23:24:18.118Z,71.28
2023-08-14T23:26:45.994Z,71.46
2023-08-14T23:29:14.016Z,71.80
2023-08-14T23:31:41.639Z,71.25
2023-08-14T23:34:10.544Z,71.04
2023-08-14T23:36:38.123Z,71.35
2023-08-14T23:39:06.138Z,71.35
2023-08-14T23:41:34.175Z,70.91
2023-08-14T23:44:01.979Z,71.55
2023-08-14T23:46:29.678Z,71.39
2023-08-14T23:48:57.363Z,71.38
2023-08-14T23:51:26.997Z,71.22
2023-08-14T23:53:54.730Z,71.48
2023-08-14T23:56:22.336Z,71.47
2023-08-14T23:58:49.957Z,71.74
